Time;durP1;ratioP1;P1;durP2;ratioP2;P2;SDS_P1;SDS_P2;PMS_P1;PMS_P2;Temp;Humidity;BMP_temperature;BMP_pressure;BME280_temperature;BME280_humidity;BME280_pressure;Samples;Min_cycle;Max_cycle;Signal;HPM_P1;HPM_P2
2022/06/04 00:01:46;;;;;;;1.85;0.73;;;12.70;98.50;;;;;;6244803;22;20423;-69
2022/06/04 00:04:16;;;;;;;2.40;0.90;;;12.80;98.40;;;;;;6245725;22;20009;-74
2022/06/04 00:06:45;;;;;;;2.95;0.98;;;12.90;98.50;;;;;;6241989;23;20019;-70
2022/06/04 00:09:15;;;;;;;2.00;0.70;;;12.90;97.70;;;;;;6244180;23;20007;-68
2022/06/04 00:17:20;;;;;;;1.05;0.70;;;13.00;97.40;;;;;;6246113;23;20335;-71
2022/06/04 00:19:47;;;;;;;2.03;0.82;;;13.20;97.30;;;;;;6245511;22;20015;-74
2022/06/04 00:22:18;;;;;;;1.27;0.70;;;13.20;96.70;;;;;;6245769;22;20082;-67
2022/06/04 00:24:46;;;;;;;1.58;1.08;;;13.30;96.90;;;;;;6242300;23;20012;-74
2022/06/04 00:27:21;;;;;;;3.25;0.80;;;13.20;96.80;;;;;;6243544;23;20016;-79
2022/06/04 00:29:51;;;;;;;2.55;0.60;;;13.30;96.70;;;;;;6245393;22;20035;-67
2022/06/04 00:32:19;;;;;;;4.63;0.80;;;13.40;97.00;;;;;;6243362;22;20012;-74
2022/06/04 00:34:47;;;;;;;2.28;0.60;;;13.30;96.80;;;;;;6243675;23;20327;-76
2022/06/04 00:37:23;;;;;;;3.08;1.00;;;13.40;95.90;;;;;;6243594;22;20004;-74
2022/06/04 00:39:51;;;;;;;2.38;0.70;;;13.50;95.50;;;;;;6246158;22;20016;-68
2022/06/04 00:42:20;;;;;;;4.07;1.40;;;13.50;95.30;;;;;;6247071;22;20011;-78
2022/06/04 00:45:10;;;;;;;2.83;0.77;;;13.60;95.00;;;;;;6247656;22;20024;-75
2022/06/04 00:47:38;;;;;;;1.70;0.70;;;13.60;95.10;;;;;;6183550;22;20038;-67
2022/06/04 00:50:08;;;;;;;5.50;1.40;;;13.60;95.50;;;;;;6244686;22;20308;-70
2022/06/04 00:52:37;;;;;;;3.15;1.08;;;13.70;95.30;;;;;;6243280;22;20026;-72
2022/06/04 00:55:07;;;;;;;3.10;0.88;;;13.80;96.00;;;;;;6242465;22;20027;-68
2022/06/04 00:57:46;;;;;;;3.10;0.80;;;13.90;96.30;;;;;;6242299;22;20019;-70
2022/06/04 01:00:24;;;;;;;3.25;1.05;;;14.00;95.90;;;;;;6243035;22;20006;-68
2022/06/04 01:03:09;;;;;;;2.75;0.90;;;14.00;96.00;;;;;;6242986;22;20086;-70
2022/06/04 01:05:54;;;;;;;2.17;0.82;;;14.10;95.60;;;;;;6243321;22;20000;-68
2022/06/04 01:08:34;;;;;;;2.75;1.15;;;14.10;95.70;;;;;;6244826;23;20075;-70
2022/06/04 01:11:13;;;;;;;2.88;1.10;;;14.20;95.60;;;;;;6245269;22;20026;-72
2022/06/04 01:14:05;;;;;;;2.83;1.00;;;14.20;95.30;;;;;;6244508;22;20031;-68
2022/06/04 01:16:32;;;;;;;3.65;2.13;;;14.30;95.60;;;;;;6245394;22;20427;-71
2022/06/04 01:19:32;;;;;;;2.90;0.90;;;14.40;95.30;;;;;;6244533;22;20071;-67
2022/06/04 01:22:08;;;;;;;3.10;0.68;;;14.50;95.00;;;;;;6244877;22;20438;-70
2022/06/04 01:25:01;;;;;;;2.78;1.20;;;14.50;94.60;;;;;;6245368;22;20008;-76
2022/06/04 01:27:40;;;;;;;4.28;1.10;;;14.60;94.70;;;;;;6244386;22;20092;-69
2022/06/04 01:30:46;;;;;;;1.80;0.80;;;14.70;94.30;;;;;;6244617;22;20427;-71
2022/06/04 01:33:23;;;;;;;3.90;1.02;;;14.80;94.20;;;;;;6237594;23;20004;-73
2022/06/04 01:35:58;;;;;;;2.92;0.82;;;15.00;94.00;;;;;;6244647;22;19996;-70
2022/06/04 01:38:35;;;;;;;2.63;0.90;;;15.10;93.50;;;;;;6244190;22;20091;-69
2022/06/04 01:41:12;;;;;;;2.17;0.80;;;15.20;92.90;;;;;;6245437;22;20039;-70
2022/06/04 01:43:56;;;;;;;2.97;0.70;;;15.30;93.10;;;;;;6245074;22;20000;-68
2022/06/04 01:46:31;;;;;;;1.83;0.77;;;15.40;92.00;;;;;;6244052;22;20008;-70
2022/06/04 01:49:08;;;;;;;3.70;0.70;;;15.40;91.90;;;;;;6244439;22;20000;-73
2022/06/04 01:51:37;;;;;;;3.55;0.73;;;15.60;91.80;;;;;;6244844;22;20061;-75
2022/06/04 01:54:17;;;;;;;3.05;0.65;;;15.70;92.10;;;;;;6244841;22;20028;-73
2022/06/04 01:56:50;;;;;;;2.00;0.70;;;15.90;92.10;;;;;;6248399;23;20216;-70
2022/06/04 01:59:36;;;;;;;3.97;0.85;;;16.10;91.70;;;;;;6247545;22;20040;-69
2022/06/04 02:02:10;;;;;;;1.95;0.70;;;16.30;91.60;;;;;;6248599;22;20441;-71
2022/06/04 02:04:43;;;;;;;1.02;0.50;;;16.50;90.70;;;;;;6249046;23;20020;-69
2022/06/04 02:07:30;;;;;;;3.97;0.93;;;16.40;90.30;;;;;;6254435;22;20012;-69
2022/06/04 02:10:06;;;;;;;1.88;0.90;;;16.50;90.00;;;;;;6255344;22;20072;-74
2022/06/04 02:12:34;;;;;;;2.65;0.82;;;16.50;90.30;;;;;;6248276;23;20058;-68
2022/06/04 02:15:09;;;;;;;1.75;0.60;;;16.50;90.10;;;;;;6246036;23;20092;-69
2022/06/04 02:17:43;;;;;;;3.67;0.70;;;16.50;89.20;;;;;;6247018;22;20004;-72
2022/06/04 02:20:13;;;;;;;3.78;1.02;;;16.60;90.60;;;;;;6245206;22;20004;-78
2022/06/04 02:22:41;;;;;;;2.20;0.73;;;16.60;89.40;;;;;;6244392;22;19996;-78
2022/06/04 02:25:11;;;;;;;1.50;0.80;;;16.70;90.30;;;;;;6245533;22;20015;-73
2022/06/04 02:27:40;;;;;;;4.45;0.60;;;16.80;89.60;;;;;;6220935;23;20020;-81
2022/06/04 02:30:10;;;;;;;2.17;0.68;;;17.00;89.30;;;;;;6246943;22;20058;-78
2022/06/04 02:32:40;;;;;;;2.00;0.60;;;17.10;87.30;;;;;;6240005;23;20087;-76
2022/06/04 02:35:24;;;;;;;3.75;1.17;;;17.30;87.40;;;;;;6243571;22;20000;-80
2022/06/04 02:38:17;;;;;;;1.40;0.88;;;17.40;86.60;;;;;;6244165;23;20083;-80
2022/06/04 02:41:08;;;;;;;4.88;0.80;;;17.50;86.20;;;;;;6244503;22;20004;-79
2022/06/04 02:43:48;;;;;;;2.25;0.70;;;17.60;86.20;;;;;;6246014;22;20000;-77
2022/06/04 02:46:28;;;;;;;1.95;0.50;;;17.80;85.10;;;;;;6244907;22;20012;-81
2022/06/04 02:49:09;;;;;;;2.15;0.80;;;18.20;84.40;;;;;;6244939;22;20055;-78
2022/06/04 02:51:55;;;;;;;2.33;0.80;;;18.30;83.50;;;;;;6245126;22;20031;-81
2022/06/04 02:54:25;;;;;;;3.10;0.60;;;18.80;81.90;;;;;;6245198;22;20031;-79
2022/06/04 02:56:55;;;;;;;1.80;0.52;;;18.90;80.90;;;;;;6244398;22;20008;-77
2022/06/04 02:59:26;;;;;;;2.67;0.88;;;18.90;80.70;;;;;;6243968;22;20007;-74
2022/06/04 03:01:57;;;;;;;2.17;0.73;;;18.90;80.70;;;;;;6245198;22;20000;-76
2022/06/04 03:04:25;;;;;;;2.40;1.20;;;19.10;80.20;;;;;;6244826;22;20020;-79
2022/06/04 03:06:52;;;;;;;1.55;0.57;;;19.30;78.80;;;;;;6246079;22;20253;-79
2022/06/04 03:09:21;;;;;;;2.53;0.60;;;19.30;78.90;;;;;;6245346;22;20010;-76
2022/06/04 03:11:51;;;;;;;1.70;0.50;;;19.40;78.20;;;;;;6246144;22;20004;-78
2022/06/04 03:14:19;;;;;;;1.80;1.15;;;19.70;77.20;;;;;;6246371;22;20011;-80
2022/06/04 03:16:49;;;;;;;1.95;0.75;;;20.00;76.70;;;;;;6245262;22;20051;-80
2022/06/04 03:19:21;;;;;;;1.50;0.60;;;20.20;76.90;;;;;;6245076;22;20446;-79
2022/06/04 03:21:49;;;;;;;2.15;0.52;;;20.30;76.60;;;;;;6218840;23;20004;-74
2022/06/04 03:24:18;;;;;;;2.47;0.95;;;20.40;75.80;;;;;;6245488;22;20019;-78
2022/06/04 03:26:47;;;;;;;2.20;0.65;;;20.40;76.30;;;;;;6244685;22;20012;-76
2022/06/04 03:29:15;;;;;;;1.48;0.80;;;20.60;74.90;;;;;;6219606;23;20009;-82
2022/06/04 03:31:42;;;;;;;1.90;0.60;;;20.80;75.20;;;;;;6244835;22;20010;-80
2022/06/04 03:34:10;;;;;;;4.25;0.80;;;21.40;74.10;;;;;;6246536;22;20000;-72
2022/06/04 03:36:38;;;;;;;2.53;0.70;;;22.00;71.90;;;;;;6245413;22;20008;-77
2022/06/04 03:39:08;;;;;;;1.00;0.50;;;22.10;71.70;;;;;;6246279;22;20050;-82
2022/06/04 03:41:39;;;;;;;2.05;0.90;;;22.50;70.50;;;;;;6246547;23;20027;-80
2022/06/04 03:44:09;;;;;;;1.35;0.60;;;22.70;69.70;;;;;;6247422;23;20004;-82
2022/06/04 03:46:37;;;;;;;2.55;0.70;;;23.00;68.20;;;;;;6246667;22;20130;-80
2022/06/04 03:49:06;;;;;;;1.38;0.68;;;22.70;68.20;;;;;;6246232;22;20006;-76
2022/06/04 03:51:34;;;;;;;1.40;0.57;;;22.70;68.80;;;;;;6244995;23;20008;-83
2022/06/04 03:54:02;;;;;;;2.20;1.23;;;23.10;68.80;;;;;;6246338;22;20035;-79
2022/06/04 03:56:30;;;;;;;2.50;0.68;;;23.60;67.00;;;;;;6245638;22;20000;-82
2022/06/04 03:58:57;;;;;;;2.67;0.60;;;23.80;66.60;;;;;;6245389;22;20000;-80
2022/06/04 04:01:27;;;;;;;2.63;0.77;;;23.80;65.40;;;;;;6244567;22;20071;-79
2022/06/04 04:03:56;;;;;;;1.33;0.70;;;23.80;66.30;;;;;;6245116;22;20284;-77
2022/06/04 04:06:26;;;;;;;2.67;0.50;;;23.40;65.50;;;;;;6219438;23;20406;-77
2022/06/04 04:08:54;;;;;;;1.08;0.50;;;22.90;65.90;;;;;;6246743;22;20004;-82
2022/06/04 04:11:25;;;;;;;3.83;0.70;;;22.50;66.80;;;;;;6245042;23;20016;-77
2022/06/04 04:13:54;;;;;;;0.77;0.60;;;21.80;69.60;;;;;;6245174;22;20042;-81
2022/06/04 04:16:22;;;;;;;3.05;0.60;;;21.10;69.50;;;;;;6245627;22;20334;-79
2022/06/04 04:18:51;;;;;;;3.35;0.68;;;20.50;71.70;;;;;;6245591;22;20008;-81
2022/06/04 04:21:22;;;;;;;1.45;0.50;;;20.00;72.30;;;;;;6245404;22;20004;-81
2022/06/04 04:23:50;;;;;;;1.95;0.50;;;19.60;73.40;;;;;;6245646;22;20020;-78
2022/06/04 04:26:18;;;;;;;2.33;0.70;;;19.20;73.50;;;;;;6246075;22;20091;-80
2022/06/04 04:28:46;;;;;;;2.75;0.68;;;18.90;74.80;;;;;;6244333;23;20013;-79
2022/06/04 04:31:17;;;;;;;0.82;0.60;;;18.80;75.60;;;;;;6248083;22;20004;-78
2022/06/04 04:33:44;;;;;;;1.95;0.90;;;18.50;75.40;;;;;;6246467;22;20368;-77
2022/06/04 04:36:12;;;;;;;1.15;0.60;;;18.40;76.10;;;;;;6245205;22;20057;-78
2022/06/04 04:38:40;;;;;;;1.40;0.45;;;18.30;77.10;;;;;;6246061;22;20010;-78
2022/06/04 04:41:15;;;;;;;1.10;0.50;;;18.10;76.00;;;;;;6245406;22;19996;-79
2022/06/04 04:43:43;;;;;;;3.22;0.70;;;18.00;76.70;;;;;;6245177;22;20004;-78
2022/06/04 04:46:12;;;;;;;1.70;0.77;;;17.90;77.00;;;;;;6246024;22;20004;-72
2022/06/04 04:48:40;;;;;;;2.90;0.57;;;17.90;76.70;;;;;;6244950;22;20066;-69
2022/06/04 04:51:16;;;;;;;2.28;0.70;;;17.80;77.60;;;;;;6244253;22;20000;-73
2022/06/04 04:53:44;;;;;;;1.55;0.50;;;17.80;77.80;;;;;;6242745;23;20004;-73
2022/06/04 04:56:15;;;;;;;3.45;0.60;;;17.90;77.80;;;;;;6244976;22;20007;-72
2022/06/04 04:58:43;;;;;;;1.40;0.60;;;17.80;77.70;;;;;;6244420;22;20019;-69
2022/06/04 05:01:22;;;;;;;1.50;0.93;;;17.90;78.60;;;;;;6244200;22;20005;-72
2022/06/04 05:03:50;;;;;;;4.88;0.75;;;17.90;78.00;;;;;;6242492;23;20035;-73
2022/06/04 05:06:18;;;;;;;2.20;0.60;;;17.90;79.00;;;;;;6244416;22;20338;-69
2022/06/04 05:08:48;;;;;;;1.45;0.60;;;18.00;78.70;;;;;;6244607;22;20422;-72
2022/06/04 05:11:18;;;;;;;1.63;0.55;;;18.10;77.60;;;;;;6243132;23;20016;-73
2022/06/04 05:13:49;;;;;;;1.65;0.45;;;18.10;78.30;;;;;;6244170;22;20373;-70
2022/06/04 05:16:22;;;;;;;0.93;0.50;;;18.00;78.30;;;;;;6242708;23;20004;-72
2022/06/04 05:18:50;;;;;;;2.03;0.52;;;18.00;78.10;;;;;;6244596;22;20008;-81
2022/06/04 05:21:22;;;;;;;0.88;0.65;;;17.90;78.70;;;;;;6244360;23;20000;-71
2022/06/04 05:23:49;;;;;;;;;;;17.90;78.80;;;;;;6246382;22;20099;-71
2022/06/04 05:26:18;;;;;;;2.95;0.63;;;17.90;79.40;;;;;;6242755;23;19935;-73
2022/06/04 05:28:46;;;;;;;0.68;0.40;;;17.90;79.00;;;;;;6244623;22;20338;-78
2022/06/04 05:31:14;;;;;;;2.15;0.80;;;18.00;78.80;;;;;;6244804;22;20073;-73
2022/06/04 05:33:41;;;;;;;0.65;0.50;;;18.10;79.30;;;;;;6244081;22;20012;-70
2022/06/04 05:36:09;;;;;;;2.92;1.13;;;18.40;78.50;;;;;;6244349;22;20085;-70
2022/06/04 05:38:37;;;;;;;2.45;0.60;;;18.40;78.30;;;;;;6244265;22;20013;-75
2022/06/04 05:41:07;;;;;;;1.77;0.52;;;18.40;77.80;;;;;;6243802;22;20485;-71
2022/06/04 05:43:35;;;;;;;1.48;0.40;;;18.40;79.10;;;;;;6243471;22;20003;-71
2022/06/04 05:46:07;;;;;;;2.88;0.57;;;18.50;78.40;;;;;;6243251;22;20083;-69
2022/06/04 05:48:37;;;;;;;2.58;0.50;;;18.40;78.10;;;;;;6243846;22;20008;-71
2022/06/04 05:51:06;;;;;;;1.65;0.50;;;18.40;78.70;;;;;;6243944;22;20000;-73
2022/06/04 05:53:33;;;;;;;2.55;0.60;;;18.60;78.90;;;;;;6243619;22;20011;-70
2022/06/04 05:56:01;;;;;;;1.55;0.60;;;18.70;78.00;;;;;;6243496;22;20504;-70
2022/06/04 05:58:31;;;;;;;1.92;0.63;;;18.70;77.70;;;;;;6243715;22;20008;-73
2022/06/04 06:01:02;;;;;;;2.58;0.52;;;18.80;77.70;;;;;;6242826;22;20482;-72
2022/06/04 06:03:30;;;;;;;2.55;0.63;;;19.10;77.10;;;;;;6242565;22;20016;-73
2022/06/04 06:06:02;;;;;;;1.63;0.70;;;19.10;76.40;;;;;;6242350;23;20099;-71
2022/06/04 06:08:31;;;;;;;2.70;0.50;;;19.00;76.60;;;;;;6243698;22;20008;-71
2022/06/04 06:10:58;;;;;;;1.48;0.60;;;18.90;77.80;;;;;;6242144;23;20031;-72
2022/06/04 06:13:26;;;;;;;1.48;0.60;;;18.90;77.30;;;;;;6243943;22;20004;-73
2022/06/04 06:15:54;;;;;;;0.98;0.50;;;18.60;78.50;;;;;;6242578;23;20000;-76
2022/06/04 06:18:22;;;;;;;1.65;0.70;;;18.30;80.10;;;;;;6242628;23;20339;-82
2022/06/04 06:20:54;;;;;;;3.13;0.70;;;18.10;81.80;;;;;;6245202;22;20001;-81
2022/06/04 06:23:22;;;;;;;2.80;0.80;;;17.80;81.10;;;;;;6244531;22;20004;-75
2022/06/04 06:25:55;;;;;;;1.65;0.90;;;17.60;81.40;;;;;;6244307;22;20007;-79
2022/06/04 06:28:23;;;;;;;3.28;0.98;;;17.30;82.00;;;;;;6244332;22;20370;-82
2022/06/04 06:30:56;;;;;;;2.10;0.60;;;17.10;81.70;;;;;;6243988;22;20074;-77
2022/06/04 06:33:24;;;;;;;0.60;0.60;;;16.90;83.10;;;;;;6243295;22;20362;-79
2022/06/04 06:35:59;;;;;;;3.17;1.20;;;16.80;82.90;;;;;;6244995;22;20034;-79
2022/06/04 06:38:27;;;;;;;1.45;0.60;;;16.60;82.00;;;;;;6246035;22;20024;-77
2022/06/04 06:40:57;;;;;;;1.73;0.65;;;16.40;81.50;;;;;;6246595;22;20007;-78
2022/06/04 06:43:38;;;;;;;1.63;0.82;;;16.30;82.50;;;;;;6245985;22;20004;-74
2022/06/04 06:46:21;;;;;;;2.33;0.80;;;16.20;83.10;;;;;;6244667;22;20016;-74
2022/06/04 06:48:51;;;;;;;1.85;0.80;;;16.10;83.10;;;;;;6245756;22;20024;-74
2022/06/04 06:51:28;;;;;;;2.85;1.00;;;16.00;84.00;;;;;;6245832;22;20007;-75
2022/06/04 06:53:56;;;;;;;2.13;1.00;;;15.80;83.90;;;;;;6246254;22;20004;-72
2022/06/04 06:56:27;;;;;;;1.85;0.95;;;15.70;85.00;;;;;;6215433;23;20059;-71
2022/06/04 06:58:55;;;;;;;1.40;0.88;;;15.70;85.30;;;;;;6243436;23;20000;-77
2022/06/04 07:01:25;;;;;;;5.43;1.38;;;15.50;85.00;;;;;;6243310;23;20012;-71
2022/06/04 07:03:56;;;;;;;2.15;0.80;;;15.50;85.40;;;;;;6245506;22;20054;-75
2022/06/04 07:06:34;;;;;;;3.20;1.70;;;15.40;85.60;;;;;;6245030;22;20000;-77
2022/06/04 07:09:04;;;;;;;1.92;1.05;;;15.30;86.00;;;;;;6245580;22;20000;-75
2022/06/04 07:11:31;;;;;;;2.60;0.80;;;15.20;86.70;;;;;;6245481;22;20024;-81
2022/06/04 07:13:59;;;;;;;3.08;1.30;;;15.10;87.00;;;;;;6244500;23;20008;-73
2022/06/04 07:16:26;;;;;;;1.63;1.00;;;15.00;87.60;;;;;;6245299;22;20000;-74
2022/06/04 07:18:54;;;;;;;1.35;0.88;;;15.00;87.90;;;;;;6245867;22;20370;-73
2022/06/04 07:21:21;;;;;;;2.25;1.00;;;14.90;88.20;;;;;;6244721;22;20008;-72
2022/06/04 07:23:50;;;;;;;1.48;1.13;;;14.80;88.50;;;;;;6245313;22;20095;-72
2022/06/04 07:26:18;;;;;;;3.65;1.80;;;14.70;89.00;;;;;;6244623;22;20492;-73
2022/06/04 07:28:45;;;;;;;3.70;1.50;;;14.70;89.50;;;;;;6243357;23;20048;-74
2022/06/04 07:31:14;;;;;;;3.20;1.50;;;14.60;89.70;;;;;;6246017;22;20001;-75
2022/06/04 07:33:47;;;;;;;2.63;1.42;;;14.60;90.00;;;;;;6243978;23;20034;-75
2022/06/04 07:36:17;;;;;;;4.30;1.70;;;14.50;90.40;;;;;;6242933;23;20015;-76
2022/06/04 07:38:45;;;;;;;4.90;2.00;;;14.40;90.30;;;;;;6243279;23;20008;-79
2022/06/04 07:41:34;;;;;;;2.95;1.23;;;14.30;90.50;;;;;;6245138;22;20028;-73
2022/06/04 07:44:02;;;;;;;3.08;1.30;;;14.20;90.50;;;;;;6245118;22;20000;-80
2022/06/04 07:46:31;;;;;;;4.05;1.55;;;14.20;90.90;;;;;;6244138;22;20016;-79
2022/06/04 07:49:01;;;;;;;3.83;1.70;;;14.20;91.10;;;;;;6245134;22;20079;-76
2022/06/04 07:51:29;;;;;;;6.95;1.67;;;14.00;91.10;;;;;;6245076;22;20039;-72
2022/06/04 07:53:56;;;;;;;6.93;3.17;;;14.00;91.50;;;;;;6243122;23;20163;-78
2022/06/04 07:56:24;;;;;;;5.90;3.72;;;14.00;91.50;;;;;;6242688;23;20011;-80
2022/06/04 07:58:52;;;;;;;5.35;2.38;;;14.00;91.50;;;;;;6245139;22;20326;-75
2022/06/04 08:01:22;;;;;;;5.38;2.95;;;13.90;91.60;;;;;;6244979;22;19997;-78
2022/06/04 08:03:51;;;;;;;3.30;1.70;;;13.90;91.80;;;;;;6244518;22;20026;-78
2022/06/04 08:06:19;;;;;;;6.43;3.58;;;13.80;91.90;;;;;;6243722;22;20407;-78
2022/06/04 08:08:50;;;;;;;4.97;3.22;;;13.80;92.00;;;;;;6244281;22;20386;-78
2022/06/04 08:11:31;;;;;;;6.43;3.30;;;13.70;92.10;;;;;;6244017;22;20003;-72
2022/06/04 08:14:21;;;;;;;7.10;4.95;;;13.70;92.20;;;;;;6244502;23;20330;-78
2022/06/04 08:16:54;;;;;;;7.78;5.10;;;13.60;92.30;;;;;;6245471;23;20433;-77
2022/06/04 08:19:23;;;;;;;5.35;3.13;;;13.70;92.50;;;;;;6244552;22;20117;-71
2022/06/04 08:21:51;;;;;;;4.45;3.00;;;13.60;92.70;;;;;;6244222;22;20453;-75
2022/06/04 08:24:20;;;;;;;4.15;2.58;;;13.50;92.90;;;;;;6244749;22;20654;-74
2022/06/04 08:26:53;;;;;;;5.00;2.95;;;13.50;93.10;;;;;;6244251;22;20331;-75
2022/06/04 08:29:23;;;;;;;4.18;2.83;;;13.50;93.40;;;;;;6243039;23;20443;-74
2022/06/04 08:31:50;;;;;;;5.57;2.90;;;13.40;93.60;;;;;;6243919;22;20004;-78
2022/06/04 08:34:17;;;;;;;3.70;2.35;;;13.30;93.90;;;;;;6242932;22;20050;-77
2022/06/04 08:36:45;;;;;;;4.93;2.75;;;13.30;94.10;;;;;;6243277;22;20000;-74
2022/06/04 08:39:13;;;;;;;5.07;2.90;;;13.20;93.90;;;;;;6244536;22;20034;-77
2022/06/04 08:41:58;;;;;;;5.93;3.13;;;13.30;94.20;;;;;;6243189;23;20430;-74
2022/06/04 08:44:40;;;;;;;6.30;3.40;;;13.20;94.40;;;;;;6244350;22;20008;-76
2022/06/04 08:47:29;;;;;;;4.80;3.30;;;13.20;94.50;;;;;;6242980;23;20019;-79
2022/06/04 08:50:07;;;;;;;7.00;3.40;;;13.20;94.80;;;;;;6244293;22;20011;-75
2022/06/04 08:52:45;;;;;;;6.65;3.58;;;13.10;95.00;;;;;;6244217;22;20023;-74
2022/06/04 08:58:23;;;;;;;6.90;4.97;;;13.00;94.90;;;;;;6243752;23;20046;-69
2022/06/04 09:00:58;;;;;;;8.45;5.40;;;13.00;94.80;;;;;;6244200;22;20079;-73
2022/06/04 09:03:47;;;;;;;9.35;5.60;;;12.90;94.80;;;;;;6244173;23;20027;-70
2022/06/04 09:06:34;;;;;;;6.43;3.97;;;12.90;94.90;;;;;;6243690;22;20012;-68
2022/06/04 09:09:25;;;;;;;6.15;4.40;;;12.80;95.00;;;;;;6183501;22;20039;-69
2022/06/04 09:12:13;;;;;;;7.63;4.07;;;12.80;95.50;;;;;;6242207;23;20006;-68
2022/06/04 09:14:53;;;;;;;8.18;4.65;;;12.80;95.40;;;;;;6243908;22;20007;-72
2022/06/04 09:17:29;;;;;;;7.38;3.67;;;12.80;95.60;;;;;;6243483;22;20370;-73
2022/06/04 09:19:59;;;;;;;5.93;3.38;;;12.80;95.80;;;;;;6244016;23;20038;-72
2022/06/04 09:22:40;;;;;;;5.47;3.47;;;12.70;96.10;;;;;;6243589;22;20033;-69
2022/06/04 09:25:13;;;;;;;5.82;3.35;;;12.70;96.60;;;;;;6243104;22;20000;-78
2022/06/04 09:28:04;;;;;;;6.85;3.58;;;12.60;96.80;;;;;;6244198;22;20014;-66
2022/06/04 09:30:37;;;;;;;5.53;3.72;;;12.60;96.90;;;;;;6244710;22;20337;-72
2022/06/04 09:33:19;;;;;;;5.93;3.30;;;12.50;96.90;;;;;;6245247;22;20419;-72
2022/06/04 09:35:47;;;;;;;6.25;3.78;;;12.50;96.70;;;;;;6243889;22;20411;-72
2022/06/04 09:38:31;;;;;;;6.10;3.60;;;12.50;97.20;;;;;;6244955;22;20012;-75
2022/06/04 09:41:18;;;;;;;7.40;3.75;;;12.40;97.30;;;;;;6243310;23;20014;-69
2022/06/04 09:44:00;;;;;;;5.63;3.22;;;12.40;97.00;;;;;;6242654;23;20008;-72
2022/06/04 09:46:31;;;;;;;4.95;3.45;;;12.40;97.50;;;;;;6244151;22;20027;-66
2022/06/04 09:49:00;;;;;;;5.00;2.97;;;12.40;97.50;;;;;;6244123;22;20011;-73
2022/06/04 09:51:31;;;;;;;7.18;4.22;;;12.40;97.70;;;;;;6242428;23;20477;-69
2022/06/04 09:54:29;;;;;;;4.70;3.20;;;12.30;97.90;;;;;;6242017;22;20091;-72
2022/06/04 09:57:02;;;;;;;4.65;3.53;;;12.30;98.40;;;;;;6243140;23;20000;-74
2022/06/04 09:59:33;;;;;;;8.85;4.43;;;12.20;98.80;;;;;;6217511;23;20016;-71
2022/06/04 10:02:02;;;;;;;7.07;4.55;;;12.20;99.00;;;;;;6244388;22;20000;-79
2022/06/04 10:04:47;;;;;;;9.07;5.53;;;12.10;99.30;;;;;;6241930;23;20486;-72
2022/06/04 10:07:42;;;;;;;6.72;5.28;;;12.00;99.40;;;;;;6243837;22;20012;-73
2022/06/04 10:10:14;;;;;;;9.23;5.43;;;12.00;99.70;;;;;;6238366;23;20426;-69
2022/06/04 10:15:41;;;;;;;13.57;6.40;;;11.90;99.90;;;;;;6244179;23;20396;-70
2022/06/04 10:18:18;;;;;;;6.68;5.03;;;11.70;99.90;;;;;;6243511;22;20004;-74
2022/06/04 10:21:20;;;;;;;7.75;5.30;;;11.80;99.90;;;;;;6244354;22;20535;-75
2022/06/04 10:23:50;;;;;;;6.32;4.70;;;11.70;99.90;;;;;;6244427;22;20066;-73
2022/06/04 10:26:29;;;;;;;9.73;5.38;;;11.60;99.90;;;;;;6244132;22;20069;-71
2022/06/04 10:29:15;;;;;;;6.28;4.70;;;11.60;99.90;;;;;;6243430;22;20465;-70
2022/06/04 10:31:51;;;;;;;9.43;5.75;;;11.50;99.90;;;;;;6244170;22;20007;-78
2022/06/04 10:34:45;;;;;;;9.15;5.68;;;11.50;99.90;;;;;;6243654;22;20032;-76
2022/06/04 10:37:37;;;;;;;12.32;6.13;;;11.40;99.90;;;;;;6244358;22;20004;-78
2022/06/04 10:40:25;;;;;;;7.38;4.78;;;11.40;99.90;;;;;;6243520;22;20004;-74
2022/06/04 10:43:30;;;;;;;6.47;5.05;;;11.40;99.90;;;;;;6244328;23;20023;-78
2022/06/04 10:46:16;;;;;;;7.10;4.90;;;11.40;99.90;;;;;;6237360;23;20502;-73
2022/06/04 10:49:02;;;;;;;9.38;5.45;;;11.40;99.90;;;;;;6244074;22;20054;-71
2022/06/04 10:51:42;;;;;;;7.90;4.80;;;11.30;99.90;;;;;;6243306;23;20050;-79
2022/06/04 10:54:21;;;;;;;7.63;5.07;;;11.30;99.90;;;;;;6243929;22;20054;-75
2022/06/04 10:57:13;;;;;;;8.00;5.25;;;11.30;99.90;;;;;;6243926;22;20056;-70
2022/06/04 10:59:59;;;;;;;7.53;4.40;;;11.30;99.90;;;;;;6243771;23;20000;-74
2022/06/04 11:02:50;;;;;;;5.57;4.40;;;11.30;99.90;;;;;;6243265;22;20447;-69
2022/06/04 11:05:45;;;;;;;5.75;4.28;;;11.20;99.90;;;;;;6243376;22;20008;-67
2022/06/04 11:08:20;;;;;;;6.65;4.82;;;11.20;99.90;;;;;;6244110;22;20012;-70
2022/06/04 11:10:54;;;;;;;7.65;5.15;;;11.20;99.90;;;;;;6244439;22;20065;-70
2022/06/04 11:13:46;;;;;;;6.88;3.95;;;11.20;99.90;;;;;;6244526;22;20450;-71
2022/06/04 11:16:33;;;;;;;5.47;4.03;;;11.20;99.90;;;;;;6227721;23;20005;-74
2022/06/04 11:19:07;;;;;;;10.63;5.03;;;11.20;99.90;;;;;;6248839;22;20004;-74
2022/06/04 11:21:40;;;;;;;6.07;3.65;;;11.10;99.90;;;;;;6257584;22;20079;-79
2022/06/04 11:24:17;;;;;;;6.13;3.92;;;11.10;99.90;;;;;;6263705;22;19991;-74
2022/06/04 11:26:56;;;;;;;5.18;2.78;;;11.10;99.90;;;;;;6257057;22;20008;-68
2022/06/04 11:29:24;;;;;;;4.93;3.50;;;11.10;99.90;;;;;;6254178;22;20000;-79
2022/06/04 11:32:22;;;;;;;4.55;2.92;;;11.20;99.90;;;;;;6249615;23;20004;-76
2022/06/04 11:35:05;;;;;;;4.93;2.92;;;11.20;99.90;;;;;;6249931;22;20005;-75
2022/06/04 11:37:51;;;;;;;3.92;2.75;;;11.20;99.90;;;;;;6245391;22;19996;-74
2022/06/04 11:40:29;;;;;;;3.95;2.45;;;11.30;99.90;;;;;;6245435;22;20020;-69
2022/06/04 11:43:03;;;;;;;4.05;2.22;;;11.30;99.90;;;;;;6243695;22;19996;-73
2022/06/04 11:45:33;;;;;;;3.55;2.20;;;11.40;99.90;;;;;;6243668;22;20011;-71
2022/06/04 11:48:24;;;;;;;4.63;2.38;;;11.40;99.90;;;;;;6243422;22;20047;-74
2022/06/04 11:51:03;;;;;;;5.03;2.10;;;11.40;99.90;;;;;;6243065;22;20000;-69
2022/06/04 11:53:40;;;;;;;4.70;3.05;;;11.50;99.90;;;;;;6241429;22;20028;-75
2022/06/04 11:56:13;;;;;;;5.70;2.35;;;11.60;99.90;;;;;;6241588;22;20058;-75
2022/06/04 11:58:56;;;;;;;5.07;1.80;;;11.70;99.90;;;;;;6243388;22;20418;-75
2022/06/04 12:01:42;;;;;;;4.60;2.05;;;11.70;99.90;;;;;;6243760;22;20091;-68
2022/06/04 12:04:16;;;;;;;3.65;1.83;;;11.70;99.90;;;;;;6242415;22;20023;-72
2022/06/04 12:06:54;;;;;;;3.08;1.95;;;11.70;99.90;;;;;;6241987;23;20343;-73
2022/06/04 12:09:35;;;;;;;4.28;2.38;;;11.70;99.90;;;;;;6241166;23;20434;-73
2022/06/04 12:12:02;;;;;;;5.80;2.55;;;11.70;99.90;;;;;;6242664;22;20004;-74
2022/06/04 12:14:46;;;;;;;3.10;1.95;;;11.60;99.90;;;;;;6242669;22;20000;-70
2022/06/04 12:17:22;;;;;;;2.25;1.48;;;11.60;99.90;;;;;;6242652;22;20489;-71
2022/06/04 12:26:27;;;;;;;3.05;1.92;;;11.60;99.90;;;;;;6242853;23;20015;-69
2022/06/04 12:28:57;;;;;;;6.00;2.20;;;11.50;99.90;;;;;;6244195;22;20008;-75
2022/06/04 12:31:37;;;;;;;4.45;2.70;;;11.50;99.90;;;;;;6241276;23;20083;-72
2022/06/04 12:34:24;;;;;;;3.65;2.33;;;11.50;99.90;;;;;;6242752;22;19996;-76
2022/06/04 12:36:54;;;;;;;4.28;2.42;;;11.50;99.90;;;;;;6242545;23;20050;-75
2022/06/04 12:39:32;;;;;;;5.70;2.92;;;11.30;99.90;;;;;;6244028;22;20015;-77
2022/06/04 12:42:10;;;;;;;3.92;2.08;;;11.30;99.90;;;;;;6241687;23;20023;-71
2022/06/04 12:44:37;;;;;;;3.38;1.92;;;11.20;99.90;;;;;;6243364;22;20089;-74
2022/06/04 12:47:30;;;;;;;4.72;2.72;;;11.10;99.90;;;;;;6242496;22;20022;-70
2022/06/04 12:50:16;;;;;;;4.43;2.53;;;11.10;99.90;;;;;;6243289;22;20003;-77
2022/06/04 12:52:56;;;;;;;5.57;2.15;;;11.00;99.90;;;;;;6242283;22;20015;-76
2022/06/04 12:55:26;;;;;;;5.35;2.97;;;11.00;99.90;;;;;;6242654;22;20409;-73
2022/06/04 12:58:03;;;;;;;4.05;2.58;;;11.00;99.90;;;;;;6244228;22;20000;-77
2022/06/04 13:00:41;;;;;;;3.65;2.50;;;11.00;99.90;;;;;;6243708;22;20026;-74
2022/06/04 13:03:08;;;;;;;4.20;2.13;;;10.90;99.90;;;;;;6243854;22;20012;-73
2022/06/04 13:05:38;;;;;;;3.45;2.10;;;10.90;99.90;;;;;;6244416;22;20030;-76
2022/06/04 13:08:21;;;;;;;4.30;2.05;;;10.80;99.90;;;;;;6243247;22;20406;-74
2022/06/04 13:10:53;;;;;;;5.78;2.28;;;10.80;99.90;;;;;;6244484;22;20000;-71
2022/06/04 13:13:55;;;;;;;3.53;2.30;;;10.80;99.90;;;;;;6244870;22;20376;-73
2022/06/04 13:16:27;;;;;;;3.55;2.00;;;10.80;99.90;;;;;;6243747;23;20415;-76
2022/06/04 13:19:32;;;;;;;5.65;2.08;;;10.80;99.90;;;;;;6243026;22;20083;-76
2022/06/04 13:22:01;;;;;;;3.80;2.60;;;10.80;99.90;;;;;;6196742;22;20012;-72
2022/06/04 13:24:39;;;;;;;3.92;1.90;;;10.80;99.90;;;;;;6243208;22;20079;-74
2022/06/04 13:27:17;;;;;;;3.85;2.20;;;10.80;99.90;;;;;;6243374;22;20042;-77
2022/06/04 13:29:45;;;;;;;5.10;3.13;;;10.80;99.90;;;;;;6244540;22;20032;-75
2022/06/04 13:32:18;;;;;;;3.50;2.20;;;10.80;99.90;;;;;;6243522;22;20083;-78
2022/06/04 13:34:46;;;;;;;3.55;1.83;;;10.80;99.90;;;;;;6243791;22;20087;-77
2022/06/04 13:37:25;;;;;;;4.55;2.03;;;10.80;99.90;;;;;;6244221;22;20050;-71
2022/06/04 13:39:54;;;;;;;4.15;2.00;;;10.80;99.90;;;;;;6244124;22;20311;-74
2022/06/04 13:42:40;;;;;;;2.88;1.40;;;10.80;99.90;;;;;;6244022;22;20000;-76
2022/06/04 13:45:10;;;;;;;2.25;1.30;;;10.70;99.90;;;;;;6242252;23;20043;-75